Terminal Aerodrome Forecast
Issued by NWS Bismarck, ND

Home | Current Version | Previous Version | Graphics & Text | Print | Product List | Glossary On
Versions: 1 2 3 4 5 6 7 8 9 10 11 12 13 14 15 16 17 18 19
000
FTUS43 KBIS 261600 AAB
TAFISN
TAF AMD
KISN 261646Z 2617/2712 14003KT P6SM OVC009
     FM262000 VRB02KT P6SM OVC012
     FM270200 24004KT P6SM SCT012 BKN035=

USA.gov is the U.S. government's official web portal to all federal, state and local government web resources and services.